Last 7 Days

Pierce College

10 Minute Data | America/Los_Angeles
as of 12/8/22 11:59 AM PST
Date & Time Temp Max (°F) Temp Min (°F) RH (%) Dew Pt (°F) Latest Rain (In) Soil Temp (°F) Soil Moist (%) Pressure (mb) Wind Spd (mph) Wind Dir (°) Wind Gust (mph) Wind Gst Dir (°) Leaf Wet Raw (mV) Net Radiation (W/m²) Evap Pan Wind Spd (mph) Evap Pan WindRun (miles) Evap Pan H2O Temp (°F) Evap Pan Level (In) Season Precip (In)
12/8/22 - 1150 60.8 60.0 39 35.5 0.00 54.2 29.5 1,025.4 2.1 WSW | 242 4.9 WSW | 257 267 335 1.5 2.4 128.4 3.8 2.17
12/8/22 - 1140 60.3 59.2 38 34.3 0.00 54.3 29.5 1,025.6 2.0 WSW | 237 5.2 W | 271 267 335 1.6 2.2 122.5 3.8 2.17
12/8/22 - 1130 59.9 58.7 41 35.6 0.00 54.3 29.5 1,025.9 1.3 N | 0 4.6 W | 271 267 334 1.3 1.9 117.2 3.8 2.17
12/8/22 - 1120 59.6 59.1 41 35.6 0.00 54.2 29.4 1,026.2 1.5 WSW | 251 4.2 WSW | 239 268 331 1.2 1.7 114.6 3.8 2.17
12/8/22 - 1110 59.9 57.5 41 35.4 0.00 54.4 29.4 1,026.4 0.7 WSW | 240 3.6 WSW | 256 268 326 0.7 1.5 113.2 3.8 2.17
12/8/22 - 1100 58.4 57.2 43 35.4 0.00 54.4 29.4 1,026.6 1.6 SW | 218 4.3 WSW | 250 268 322 1.3 1.4 117.2 3.8 2.17
12/8/22 - 1050 57.4 55.9 47 36.8 0.00 54.3 29.4 1,026.7 1.2 W | 269 3.1 SW | 222 268 321 0.9 1.1 121.4 3.8 2.17
12/8/22 - 1040 57.6 55.9 48 37.3 0.00 54.5 29.4 1,026.9 2.4 WSW | 256 4.2 WSW | 244 268 315 1.9 1.0 118.4 3.8 2.17
12/8/22 - 1030 57.1 55.3 48 36.7 0.00 54.4 29.4 1,027.0 0.5 NW | 315 2.2 WNW | 288 268 305 0.5 0.7 116.0 3.8 2.17
12/8/22 - 1020 56.8 55.4 47 36.4 0.00 54.4 29.4 1,027.0 1.5 WSW | 258 4.3 WSW | 240 268 294 0.8 0.6 113.3 3.8 2.17
12/8/22 - 1010 55.9 54.2 50 36.8 0.00 54.6 29.4 1,027.0 0.5 SW | 217 1.5 S | 173 268 280 0.0 0.4 111.8 3.8 2.17
12/8/22 - 1000 54.6 54.0 53 37.3 0.00 54.5 29.3 1,027.2 1.0 NE | 50 2.6 NNE | 30 269 268 0.1 0.4 111.1 3.8 2.17
12/8/22 - 0950 54.2 52.2 59 39.0 0.00 54.6 29.3 1,027.1 0.7 S | 188 1.6 WSW | 255 269 268 0.3 0.4 108.3 3.8 2.17
12/8/22 - 0940 52.4 51.1 66 41.0 0.00 54.6 29.3 1,027.0 1.1 SW | 215 2.5 WSW | 254 269 300 0.4 0.4 106.6 3.8 2.17
12/8/22 - 0930 51.1 50.0 75 42.6 0.00 54.7 29.3 1,027.0 1.6 WSW | 240 3.1 W | 259 270 286 1.1 0.3 106.5 3.8 2.17
12/8/22 - 0920 50.4 49.2 82 44.4 0.00 54.8 29.3 1,027.1 1.2 W | 264 3.0 WSW | 250 270 266 0.7 0.1 106.0 3.8 2.17
12/8/22 - 0910 50.0 48.1 88 45.6 0.00 55.0 29.3 1,027.0 0.3 SSW | 202 2.4 W | 262 279 243 0.1 0.0 104.3 3.8 2.17
12/8/22 - 0900 48.2 47.3 90 45.1 0.00 55.1 29.2 1,027.1 0.3 S | 172 1.2 SSE | 148 288 216 0.0 0.0 99.5 3.8 2.17
12/8/22 - 0850 47.6 46.0 92 44.6 0.00 55.2 29.2 1,027.0 0.1 W | 278 1.0 W | 263 294 186 0.0 0.0 94.7 3.8 2.17
12/8/22 - 0840 46.2 45.0 93 43.8 0.00 55.4 29.2 1,027.0 0.1 WSW | 244 0.9 WSW | 250 300 153 0.0 0.0 92.8 3.8 2.17
12/8/22 - 0830 45.2 44.0 93 42.6 0.00 55.5 29.2 1,027.0 0.1 NNE | 23 1.0 NNE | 24 305 119 0.0 0.0 92.0 3.8 2.17
12/8/22 - 0820 44.5 43.1 94 42.0 0.00 55.7 29.2 1,027.0 0.0 N | 0 0.0 E | 86 312 89 0.0 0.0 91.5 3.8 2.17
12/8/22 - 0810 43.2 39.6 96 40.2 0.00 55.8 29.2 1,026.9 0.0 N | 0 0.0 SE | 144 328 67 0.0 0.0 91.3 3.8 2.17
12/8/22 - 0800 39.6 38.3 95 37.5 0.00 56.0 29.2 1,026.9 0.6 SE | 144 1.1 SE | 144 358 60 0.0 0.0 91.0 3.8 2.17
12/8/22 - 0750 38.4 36.7 96 36.7 0.00 56.2 29.2 1,026.8 0.1 W | 260 0.7 WSW | 254 383 34 0.0 0.0 90.9 3.8 2.17
12/8/22 - 0740 36.7 35.3 95 34.6 0.00 56.3 29.2 1,026.6 0.0 SE | 144 0.1 SE | 144 443 12 0.0 0.0 90.7 3.8 2.17
12/8/22 - 0730 35.5 34.6 95 33.9 0.00 56.4 29.2 1,026.6 0.4 SSE | 149 1.1 SSE | 149 308 7 0.0 0.0 90.6 3.8 2.17
12/8/22 - 0720 35.1 34.5 94 33.3 0.00 56.4 29.2 1,026.4 0.1 SSE | 151 0.9 SSE | 166 286 3 0.0 0.0 90.7 3.8 2.17
12/8/22 - 0710 35.1 34.3 95 33.3 0.00 56.4 29.2 1,026.3 0.1 S | 185 1.0 S | 185 287 -1 0.0 0.0 90.4 3.8 2.17
12/8/22 - 0700 34.6 34.3 94 33.1 0.00 56.4 29.2 1,026.3 0.0 SSE | 147 0.2 SSE | 147 282 -6 0.0 0.0 90.3 3.8 2.17
12/8/22 - 0650 35.0 34.5 95 33.3 0.00 56.3 29.3 1,026.2 0.2 SSE | 166 0.9 SW | 214 283 -9 0.0 0.0 90.0 3.8 2.17
12/8/22 - 0640 35.1 34.3 94 33.1 0.00 56.2 29.2 1,026.1 0.2 SSE | 156 1.0 SSE | 149 282 -11 0.0 0.0 89.9 3.8 2.17
12/8/22 - 0630 35.2 34.6 95 33.6 0.00 56.3 29.2 1,026.0 0.9 SW | 223 2.0 SW | 225 282 -11 0.0 0.0 89.6 3.8 2.17
12/8/22 - 0620 35.0 34.5 94 33.2 0.00 56.2 29.3 1,025.9 0.2 SW | 219 1.2 SW | 224 282 -12 0.0 0.0 89.3 3.8 2.17
12/8/22 - 0610 35.2 34.6 95 33.5 0.00 56.1 29.3 1,025.8 0.1 SSE | 167 0.9 SSW | 211 339 -12 0.0 0.0 89.4 3.8 2.17
12/8/22 - 0600 35.2 34.5 94 33.4 0.00 56.2 29.3 1,025.8 0.4 SSE | 158 1.2 SW | 214 390 -12 0.0 0.0 89.1 3.8 2.17
12/8/22 - 0550 35.2 34.7 94 33.6 0.00 56.2 29.3 1,025.8 0.0 SE | 135 0.3 SE | 135 388 -12 0.0 0.0 89.0 3.8 2.17
12/8/22 - 0540 35.4 34.8 94 33.6 0.00 56.1 29.4 1,025.8 0.0 N | 0 0.0 SE | 131 402 -13 0.0 0.0 88.9 3.8 2.17
12/8/22 - 0530 35.7 35.1 94 33.8 0.00 56.2 29.4 1,025.7 0.1 SE | 141 0.7 SE | 141 400 -13 0.0 0.0 88.9 3.8 2.17
12/8/22 - 0520 36.5 35.6 95 34.7 0.00 56.2 29.4 1,025.7 0.8 SSW | 206 1.4 SW | 219 395 -12 0.0 0.0 88.8 3.8 2.17
12/8/22 - 0510 35.7 35.0 94 33.9 0.00 56.2 29.4 1,025.6 0.1 WSW | 244 0.7 WSW | 244 394 -12 0.0 0.0 88.9 3.8 2.17
12/8/22 - 0500 36.5 35.1 94 34.1 0.00 56.2 29.4 1,025.5 0.0 N | 0 0.0 SSE | 162 387 -13 0.0 0.0 88.8 3.8 2.17
12/8/22 - 0450 36.6 35.9 95 34.9 0.00 56.3 29.4 1,025.5 0.0 N | 0 0.0 SSE | 162 385 -12 0.0 0.0 88.9 3.8 2.17
12/8/22 - 0440 36.6 35.6 94 34.4 0.00 56.4 29.4 1,025.5 0.0 SE | 142 0.3 SE | 142 398 -13 0.0 0.0 89.1 3.8 2.17
12/8/22 - 0430 36.7 36.3 94 34.9 0.00 56.5 29.4 1,025.5 0.0 N | 0 0.0 SE | 142 399 -12 0.0 0.0 89.1 3.8 2.17
12/8/22 - 0420 36.8 36.4 94 35.0 0.00 56.6 29.4 1,025.5 0.0 N | 0 0.0 SSE | 152 394 -13 0.0 0.0 89.1 3.8 2.17
12/8/22 - 0410 37.1 36.6 94 35.3 0.00 56.6 29.4 1,025.5 0.1 SSE | 156 1.2 S | 191 388 -13 0.0 0.0 89.2 3.8 2.17
12/8/22 - 0400 37.2 36.5 94 35.2 0.00 56.7 29.4 1,025.5 0.4 SSW | 213 1.1 SSW | 207 381 -13 0.0 0.0 89.1 3.8 2.17
12/8/22 - 0350 37.2 36.7 94 35.5 0.00 56.8 29.4 1,025.5 0.7 SE | 135 1.6 SE | 131 382 -13 0.0 0.0 89.3 3.8 2.17
12/8/22 - 0340 37.0 36.3 94 34.9 0.00 56.9 29.4 1,025.7 0.7 SSE | 167 1.4 S | 182 396 -13 0.0 0.0 89.9 3.8 2.17
12/8/22 - 0330 37.2 36.7 94 35.3 0.00 56.9 29.4 1,025.9 0.9 SE | 144 1.8 SE | 132 393 -13 0.0 0.0 90.2 3.8 2.17
12/8/22 - 0320 37.4 36.8 94 35.4 0.00 57.0 29.5 1,026.0 0.4 SSE | 168 1.4 S | 187 387 -13 0.0 0.0 90.6 3.8 2.17
12/8/22 - 0310 37.5 36.8 94 35.5 0.00 56.9 29.5 1,026.1 0.2 SSE | 159 0.7 SSE | 160 386 -13 0.0 0.0 91.1 3.8 2.17
12/8/22 - 0300 37.9 36.8 94 35.6 0.00 56.9 29.5 1,026.1 0.6 SSW | 204 1.8 SW | 234 382 -13 0.0 0.0 91.3 3.8 2.17
12/8/22 - 0250 37.6 37.3 94 35.8 0.00 56.8 29.5 1,026.3 0.1 SW | 222 0.8 SW | 225 394 -13 0.0 0.0 92.2 3.8 2.17
12/8/22 - 0240 37.5 37.0 94 35.5 0.00 56.8 29.5 1,026.3 0.0 SSW | 212 0.5 SSW | 212 394 -14 0.0 0.0 93.1 3.8 2.17
12/8/22 - 0230 37.6 37.1 93 35.7 0.00 56.8 29.5 1,026.3 0.0 E | 86 0.1 E | 86 391 -14 0.0 0.0 93.6 3.8 2.17
12/8/22 - 0220 38.1 37.4 93 36.0 0.00 56.6 29.5 1,026.3 0.3 SSE | 156 0.9 SE | 138 389 -14 0.0 0.0 94.5 3.8 2.17
12/8/22 - 0210 38.4 37.6 93 36.2 0.00 56.5 29.6 1,026.3 0.0 N | 0 0.0 S | 177 385 -14 0.0 0.0 96.3 3.8 2.17
12/8/22 - 0200 38.6 38.0 94 36.6 0.00 56.5 29.6 1,026.3 0.0 N | 0 0.0 S | 179 380 -15 0.0 0.0 97.3 3.8 2.17
12/8/22 - 0150 38.4 37.7 93 36.3 0.00 56.5 29.6 1,026.3 0.7 SW | 231 1.8 WSW | 238 391 -14 0.0 0.0 98.8 3.8 2.17
12/8/22 - 0140 38.2 37.7 93 36.1 0.00 56.6 29.6 1,026.2 0.0 N | 0 0.0 ESE | 118 392 -15 0.0 0.0 101.3 3.8 2.17
12/8/22 - 0130 38.5 37.9 93 36.3 0.00 56.6 29.6 1,026.1 0.0 S | 169 0.4 S | 169 391 -16 0.0 0.0 104.3 3.8 2.17
12/8/22 - 0120 38.8 38.3 93 36.7 0.00 56.5 29.6 1,026.0 0.0 SE | 124 0.7 SE | 139 387 -15 0.0 0.0 108.1 3.8 2.17
12/8/22 - 0110 39.4 38.6 93 36.9 0.00 56.6 29.6 1,026.0 0.0 N | 0 0.0 S | 182 383 -16 0.0 0.0 111.9 3.8 2.17
12/8/22 - 0100 39.4 38.9 93 37.2 0.00 56.6 29.6 1,025.9 0.0 S | 185 0.9 S | 186 395 -16 0.0 0.0 112.2 3.8 2.17
12/8/22 - 0050 39.6 39.2 93 37.4 0.00 56.8 29.7 1,025.8 0.0 N | 0 0.0 S | 182 391 -17 0.0 0.0 114.3 3.8 2.17
12/8/22 - 0040 39.6 39.3 93 37.5 0.00 56.8 29.6 1,025.9 0.0 SSW | 199 0.4 SSW | 199 387 -17 0.0 0.0 113.7 3.8 2.17
12/8/22 - 0030 40.0 39.4 92 37.6 0.00 56.8 29.7 1,025.9 0.0 N | 0 0.0 SSE | 151 382 -17 0.0 0.0 112.8 3.8 2.17
12/8/22 - 0020 40.3 39.7 92 37.8 0.00 57.1 29.7 1,025.9 0.1 SSE | 152 0.6 SSE | 155 376 -18 0.0 0.0 111.0 3.8 2.17
12/8/22 - 0010 40.4 39.6 93 38.2 0.00 57.3 29.7 1,025.9 0.3 SW | 215 1.3 SSW | 208 389 -18 0.0 0.0 108.8 3.8 2.17
12/8/22 - 0000 40.5 39.7 92 38.0 0.00 57.5 29.7 1,026.0 0.3 SSE | 162 1.4 SE | 142 386 -18 0.0 10.5 107.3 3.8 2.17
12/7/22 - 2350 40.3 40.0 92 38.1 0.00 57.6 29.7 1,026.0 0.1 SE | 138 0.6 SE | 139 382 -19 0.0 10.5 103.6 3.8 2.17
12/7/22 - 2340 40.3 39.9 92 38.0 0.00 57.4 29.7 1,026.1 0.1 S | 173 0.8 SSW | 201 378 -19 0.0 10.5 105.2 3.8 2.17
12/7/22 - 2330 40.2 39.6 92 37.7 0.00 57.3 29.7 1,026.0 0.3 SW | 215 1.5 SSW | 206 376 -19 0.0 10.5 110.3 3.8 2.17
12/7/22 - 2320 40.5 39.7 91 37.8 0.00 57.4 29.7 1,025.9 0.2 SSE | 153 1.2 SE | 138 387 -20 0.0 10.5 125.2 3.8 2.17
12/7/22 - 2310 41.1 40.3 91 38.5 0.00 57.4 29.7 1,025.8 0.1 SSE | 154 1.1 S | 188 386 -20 0.0 10.5 - 3.8 2.17
12/7/22 - 2300 41.4 41.0 91 38.8 0.00 57.3 29.7 1,025.9 1.1 SSW | 210 1.6 SSW | 208 384 -19 0.0 10.5 - 3.8 2.17
12/7/22 - 2250 41.7 41.1 91 39.0 0.00 57.4 29.7 1,026.0 0.2 SSW | 205 1.3 SSW | 193 386 -21 0.0 10.5 - 3.8 2.17
12/7/22 - 2240 41.7 40.9 91 38.8 0.00 57.4 29.8 1,025.9 0.4 SW | 220 2.3 SW | 218 384 -22 0.0 10.5 - 3.8 2.17
12/7/22 - 2230 42.0 41.4 91 39.1 0.00 57.3 29.7 1,025.8 0.1 ESE | 114 0.6 E | 86 383 -22 0.0 10.5 - 3.8 2.17
12/7/22 - 2220 42.1 41.9 90 39.4 0.00 57.4 29.8 1,025.7 0.0 ENE | 75 0.4 NE | 36 376 -23 0.0 10.5 - 3.8 2.17
12/7/22 - 2210 42.4 41.9 90 39.6 0.00 57.6 29.8 1,025.6 0.4 SSE | 163 1.6 SSE | 152 369 -23 0.0 10.5 - 3.8 2.17
12/7/22 - 2200 42.5 42.1 90 39.6 0.00 57.6 29.8 1,025.5 0.5 SSE | 165 1.2 SE | 142 365 -24 0.0 10.5 - 3.8 2.17
12/7/22 - 2150 42.5 42.1 90 39.5 0.00 57.6 29.8 1,025.4 1.0 S | 188 2.1 SW | 222 359 -24 0.0 10.5 - 3.8 2.17
12/7/22 - 2140 42.4 42.1 89 39.3 0.00 57.7 29.8 1,025.4 0.0 N | 0 0.0 SE | 134 355 -26 0.0 10.5 - 3.8 2.17
12/7/22 - 2130 42.7 42.1 89 39.3 0.00 57.7 29.8 1,025.4 0.0 N | 0 0.0 ESE | 112 349 -28 0.0 10.5 - 3.8 2.17
12/7/22 - 2120 43.0 42.3 88 39.5 0.00 57.8 29.8 1,025.4 0.0 SSE | 154 0.7 SSE | 154 342 -30 0.0 10.5 - 3.8 2.17
12/7/22 - 2110 43.2 42.7 88 39.6 0.00 57.8 29.8 1,025.2 0.3 S | 177 1.2 S | 184 333 -32 0.0 10.5 - 3.8 2.17
12/7/22 - 2100 43.3 42.8 88 39.6 0.00 57.8 29.8 1,025.1 0.2 SSE | 160 1.2 S | 180 326 -35 0.0 10.5 - 3.8 2.17
12/7/22 - 2050 43.8 43.3 87 40.0 0.00 57.7 29.9 1,024.9 0.9 S | 185 2.2 SSW | 200 319 -36 0.2 10.5 - 3.8 2.17
12/7/22 - 2040 44.1 43.6 86 40.1 0.00 57.6 29.9 1,024.9 0.1 S | 177 1.3 S | 183 312 -41 0.0 10.4 - 3.8 2.17
12/7/22 - 2030 44.3 43.4 86 39.8 0.00 57.6 29.9 1,024.9 0.0 S | 181 0.5 S | 190 305 -46 0.0 10.4 - 3.8 2.17
12/7/22 - 2020 44.4 43.9 85 39.8 0.00 57.4 29.9 1,024.9 0.2 SSE | 152 1.0 SSE | 150 300 -51 0.0 10.4 - 3.8 2.17
12/7/22 - 2010 45.4 44.1 83 40.0 0.00 57.5 29.9 1,024.9 0.2 SE | 129 0.7 SE | 129 294 -55 0.0 10.4 - 3.8 2.17
12/7/22 - 2000 45.6 45.2 83 40.7 0.00 57.6 29.9 1,024.9 0.1 SSE | 162 0.6 SSE | 165 290 -57 0.0 10.4 - 3.8 2.17
12/7/22 - 1950 45.8 45.4 82 40.5 0.00 57.6 29.9 1,024.9 0.4 S | 171 1.1 S | 172 285 -60 0.0 10.4 - 3.8 2.17
12/7/22 - 1940 46.3 45.6 81 40.6 0.00 57.4 29.9 1,024.8 1.0 S | 169 1.8 S | 179 281 -61 0.4 10.4 - 3.8 2.17
12/7/22 - 1930 46.4 46.1 81 40.8 0.00 57.4 30.0 1,024.7 1.3 S | 181 2.3 SSW | 197 279 -61 0.0 10.4 - 3.8 2.17
12/7/22 - 1920 46.6 45.9 80 40.3 0.00 57.4 30.0 1,024.7 1.1 S | 181 2.0 SSW | 207 276 -63 0.1 10.4 - 3.8 2.17
12/7/22 - 1910 47.0 46.4 79 40.6 0.00 57.4 30.0 1,024.7 1.0 S | 177 1.9 S | 178 275 -63 0.1 10.3 - 3.8 2.17
12/7/22 - 1900 48.2 46.8 77 40.4 0.00 57.5 30.0 1,024.6 1.2 S | 169 2.1 SSW | 192 274 -64 0.7 10.3 - 3.8 2.17
12/7/22 - 1850 48.4 48.0 76 40.9 0.00 57.3 30.0 1,024.4 1.3 SSW | 203 1.9 SSW | 203 273 -63 0.0 10.2 - 3.8 2.17
12/7/22 - 1840 48.5 47.8 75 40.6 0.00 57.3 30.0 1,024.2 1.2 S | 187 1.8 S | 187 273 -64 0.0 10.2 - 3.8 2.17
12/7/22 - 1830 49.9 48.4 72 40.4 0.00 57.3 30.0 1,024.1 0.8 SSE | 167 2.1 S | 186 273 -66 0.0 10.2 - 3.8 2.17
12/7/22 - 1820 50.5 49.7 69 40.6 0.00 57.3 30.0 1,024.1 1.3 SSW | 194 2.5 W | 281 272 -67 0.1 10.2 - 3.8 2.17
12/7/22 - 1810 50.8 50.3 68 40.4 0.00 57.3 30.1 1,024.0 1.5 SW | 226 2.6 W | 266 271 -67 0.3 10.2 - 3.8 2.17
12/7/22 - 1800 50.9 50.5 68 40.5 0.00 57.3 30.0 1,024.1 2.1 WSW | 244 2.7 WSW | 252 271 -67 0.7 10.1 - 3.8 2.17
12/7/22 - 1750 51.0 50.7 68 40.5 0.00 57.4 30.1 1,024.0 1.0 SW | 230 2.5 SW | 219 270 -67 0.0 10.0 - 3.8 2.17
12/7/22 - 1740 51.5 50.8 66 40.4 0.00 57.5 30.1 1,024.0 1.5 SW | 220 2.7 WSW | 237 270 -68 0.2 10.0 - 3.8 2.17
12/7/22 - 1730 52.2 51.4 64 39.9 0.00 57.4 30.1 1,023.9 1.1 WSW | 248 2.9 WSW | 241 270 -69 0.1 10.0 - 3.8 2.17
12/7/22 - 1720 52.5 52.0 62 39.7 0.00 57.4 30.1 1,023.9 1.5 SW | 228 3.0 SW | 219 270 -71 0.5 10.0 - 3.8 2.17
12/7/22 - 1710 52.6 52.2 62 39.6 0.00 57.4 30.1 1,023.9 2.5 SSW | 208 4.3 SSW | 209 270 -71 0.9 9.9 - 3.8 2.17
12/7/22 - 1700 53.2 52.6 62 40.0 0.00 57.4 30.1 1,023.9 2.3 SSW | 208 3.9 WSW | 244 270 -71 1.3 9.7 - 3.8 2.17
12/7/22 - 1650 53.8 53.1 60 39.8 0.00 57.3 30.1 1,023.8 2.4 SW | 220 4.2 WSW | 243 269 -70 1.1 9.5 - 3.8 2.17
12/7/22 - 1640 54.0 53.5 60 40.3 0.00 57.3 30.1 1,023.8 2.0 SSW | 202 3.8 SW | 219 269 -67 0.7 9.3 - 3.8 2.17
12/7/22 - 1630 54.4 53.8 60 40.4 0.00 57.2 30.1 1,023.8 2.2 S | 185 6.1 S | 187 269 -64 1.0 9.2 - 3.8 2.17
12/7/22 - 1620 55.3 54.3 59 40.6 0.00 57.1 30.1 1,023.6 2.9 S | 179 5.9 SE | 136 269 -52 2.1 9.0 - 3.8 2.17
12/7/22 - 1610 55.7 55.1 57 40.5 0.00 57.2 30.1 1,023.5 3.5 S | 174 6.2 S | 181 268 -28 2.0 8.7 - 3.8 2.17
12/7/22 - 1600 56.4 55.7 55 40.0 0.00 57.1 30.1 1,023.3 3.7 S | 174 6.7 SE | 124 268 -12 2.5 8.3 - 3.8 2.17
12/7/22 - 1550 57.6 56.1 53 39.8 0.00 57.0 30.1 1,023.1 3.6 S | 169 6.9 S | 170 268 14 2.4 7.9 - 3.8 2.17
12/7/22 - 1540 57.6 57.3 51 39.6 0.00 56.8 30.1 1,022.9 3.0 SSE | 167 5.9 SSE | 167 268 34 1.9 7.5 - 3.8 2.17
12/7/22 - 1530 57.9 57.2 51 39.5 0.00 56.8 30.1 1,022.6 3.1 SSE | 165 5.7 ESE | 120 267 64 2.1 7.2 - 3.8 2.17
12/7/22 - 1520 58.1 57.3 51 39.7 0.00 56.5 30.1 1,022.5 3.9 SE | 142 7.8 SE | 133 267 97 1.6 6.9 - 3.8 2.17
12/7/22 - 1510 57.8 56.9 52 40.0 0.00 56.4 30.1 1,022.5 3.2 SSE | 157 7.1 ENE | 72 267 152 2.0 6.6 - 3.8 2.17
12/7/22 - 1500 57.0 55.7 55 40.1 0.00 56.3 30.1 1,022.4 3.1 SSE | 162 5.5 SE | 139 268 94 1.6 6.3 - 3.8 2.17
12/7/22 - 1450 56.0 55.7 55 40.1 0.00 56.6 30.1 1,022.4 2.8 S | 174 6.4 S | 171 269 -12 1.8 6.0 - 3.8 2.17
12/7/22 - 1440 56.0 55.7 55 40.0 0.00 56.6 30.1 1,022.4 2.5 S | 171 4.9 SSW | 196 269 -25 1.2 5.7 - 3.8 2.17
12/7/22 - 1430 56.4 55.7 55 40.1 0.00 56.6 30.1 1,022.3 3.0 SSE | 160 5.7 S | 181 269 -36 1.3 5.5 - 3.8 2.17
12/7/22 - 1420 56.7 56.3 55 40.4 0.00 56.5 30.1 1,022.2 2.4 S | 179 5.7 S | 171 268 -30 1.3 5.3 - 3.8 2.17
12/7/22 - 1410 57.8 56.5 54 40.4 0.00 56.4 30.1 1,022.2 3.3 S | 179 6.6 SSE | 156 268 -0 2.3 5.0 - 3.8 2.17
12/7/22 - 1400 60.1 57.7 50 40.3 0.00 56.4 30.1 1,022.1 3.8 SE | 125 7.9 SE | 125 268 41 2.0 4.7 - 3.8 2.17
12/7/22 - 1350 60.1 59.5 46 38.8 0.00 56.4 30.1 1,022.1 2.5 SE | 137 5.3 ESE | 121 266 287 1.3 4.3 - 3.8 2.17
12/7/22 - 1340 60.2 59.4 47 39.3 0.00 56.3 30.1 1,022.1 2.2 ESE | 121 4.9 E | 100 266 293 1.2 4.1 - 3.8 2.17
12/7/22 - 1330 59.4 58.5 49 39.8 0.00 56.3 30.1 1,022.2 2.6 SE | 126 6.4 SE | 139 266 284 1.2 3.9 - 3.8 2.17
12/7/22 - 1320 58.8 58.3 48 39.2 0.00 56.3 30.1 1,022.2 3.0 ESE | 108 5.3 E | 98 267 305 1.7 3.7 - 3.8 2.17
12/7/22 - 1310 58.6 56.8 50 39.1 0.00 56.2 30.1 1,022.2 2.5 ESE | 115 4.5 SE | 134 267 172 1.2 3.4 - 3.8 2.17
12/7/22 - 1300 60.5 57.7 47 39.1 0.00 56.2 30.0 1,022.2 2.2 SE | 129 4.8 SSE | 147 268 3 1.2 3.2 - 3.8 2.17
12/7/22 - 1250 61.4 60.2 45 39.3 0.00 56.1 30.0 1,022.4 1.4 ESE | 111 3.7 ESE | 120 267 329 0.6 3.0 - 3.8 2.17
12/7/22 - 1240 61.1 60.4 45 39.0 0.00 56.1 30.0 1,022.4 0.5 N | 355 2.3 NW | 319 267 235 0.4 2.9 - 3.8 2.17
12/7/22 - 1230 60.5 59.3 48 39.7 0.00 56.1 30.0 1,022.6 2.1 W | 267 4.6 WSW | 244 267 318 2.1 2.9 - 3.8 2.17
12/7/22 - 1220 60.2 59.5 48 40.0 0.00 56.2 30.0 1,022.7 1.8 E | 82 4.0 SE | 136 267 362 0.8 2.5 - 3.8 2.17
12/7/22 - 1210 59.8 58.5 49 40.1 0.00 56.2 30.0 1,022.7 1.8 W | 276 5.1 W | 271 268 304 1.7 2.4 - 3.8 2.17
12/7/22 - 1200 59.4 56.9 52 40.5 0.00 56.2 30.0 1,022.9 1.3 WSW | 248 3.0 SW | 214 268 369 1.0 2.1 - 3.8 2.17
12/7/22 - 1150 57.9 56.4 53 40.2 0.00 56.2 29.9 1,023.1 2.2 S | 186 4.4 SSW | 208 269 224 1.8 1.9 - 3.8 2.17
12/7/22 - 1140 58.1 57.2 53 40.4 0.00 56.3 29.9 1,023.3 2.3 SSE | 159 5.3 SE | 135 268 279 1.4 1.6 - 3.8 2.17
12/7/22 - 1130 58.0 57.2 53 40.3 0.00 56.3 29.9 1,023.4 1.9 S | 185 4.4 SSW | 206 269 254 1.2 1.4 - 3.8 2.17
12/7/22 - 1120 60.1 57.6 52 41.1 0.00 56.4 29.9 1,023.6 2.6 SSW | 212 4.6 WSW | 247 269 296 1.9 1.2 - 3.8 2.17
12/7/22 - 1110 60.2 58.8 54 43.0 0.00 56.4 29.8 1,023.6 0.4 WNW | 282 2.1 W | 263 269 239 0.7 0.9 - 3.8 2.17
12/7/22 - 1100 59.2 57.5 56 42.6 0.00 56.4 29.8 1,023.7 0.5 NW | 326 2.3 NE | 50 269 321 0.2 0.8 - 3.8 2.17
12/7/22 - 1050 58.1 57.4 57 42.6 0.00 56.6 29.8 1,023.7 1.0 NNE | 12 2.8 NNE | 24 269 337 0.4 0.7 - 3.8 2.17
12/7/22 - 1040 58.2 56.3 59 43.2 0.00 56.7 29.7 1,023.7 1.0 W | 278 3.5 SW | 232 269 316 1.2 0.7 - 3.8 2.17
12/7/22 - 1030 56.8 55.5 61 42.9 0.00 56.9 29.8 1,023.7 1.5 SW | 230 4.2 WSW | 252 269 304 1.3 0.5 - 3.8 2.17
12/7/22 - 1020 55.6 54.7 64 43.1 0.00 56.8 29.7 1,023.7 1.7 NE | 46 3.1 NNE | 29 270 303 0.5 0.3 - 3.8 2.17
12/7/22 - 1010 55.7 55.0 64 43.5 0.00 56.9 29.7 1,023.8 1.1 NNE | 12 2.6 NNE | 14 270 288 0.5 0.2 - 3.8 2.17
12/7/22 - 1000 55.7 54.7 65 43.5 0.00 56.8 29.7 1,023.7 0.9 NE | 34 2.5 NE | 42 270 270 0.4 0.1 - 3.8 2.17
12/7/22 - 0950 55.8 55.2 65 43.8 0.00 56.8 29.7 1,023.7 0.5 NNE | 22 1.8 NNE | 16 270 253 0.1 0.0 - 3.8 2.17
12/7/22 - 0940 55.4 53.7 69 44.2 0.00 56.9 29.7 1,023.6 0.6 E | 84 2.2 ENE | 57 270 260 0.1 0.0 - 3.8 2.17
12/7/22 - 0930 53.8 51.6 76 45.0 0.00 57.0 29.7 1,023.5 0.2 NNE | 22 1.6 NNE | 15 270 289 0.0 0.0 - 3.8 2.17
12/7/22 - 0920 51.8 50.4 82 45.6 0.00 57.0 29.7 1,023.5 0.5 NNE | 26 2.0 NE | 45 270 273 0.0 0.0 - 3.8 2.17
12/7/22 - 0910 50.6 49.7 86 46.1 0.00 57.4 29.7 1,023.4 0.5 N | 7 2.0 NNW | 330 270 249 0.0 0.0 - 3.8 2.17
12/7/22 - 0900 50.2 49.6 89 46.7 0.00 57.6 29.7 1,023.3 0.5 NNE | 30 1.6 NE | 36 278 222 0.0 0.0 - 3.8 2.17
12/7/22 - 0850 50.3 49.1 90 46.9 0.00 57.6 29.7 1,023.2 0.4 NNE | 23 1.6 NE | 36 287 193 0.0 0.0 - 3.8 2.17
12/7/22 - 0840 50.1 48.9 92 47.3 0.00 57.5 29.7 1,023.0 0.0 N | 0 0.0 NNE | 13 295 160 0.0 0.0 - 3.8 2.17
12/7/22 - 0830 49.4 46.3 94 46.2 0.00 57.5 29.7 1,022.9 0.0 NNE | 13 0.0 NNE | 13 301 130 0.0 0.0 - 3.8 2.17
12/7/22 - 0820 46.5 44.8 94 43.9 0.00 57.4 29.7 1,022.7 0.1 NNE | 24 1.0 NNE | 22 307 98 0.0 0.0 - 3.8 2.17
12/7/22 - 0810 44.8 43.6 95 43.0 0.00 57.3 29.7 1,022.7 0.3 NNE | 31 1.1 NNE | 28 324 69 0.0 0.0 - 3.8 2.17
12/7/22 - 0800 43.4 41.1 96 41.0 0.00 57.3 29.7 1,022.5 0.0 N | 0 0.0 ESE | 123 359 52 0.0 0.0 - 3.8 2.17
12/7/22 - 0750 41.2 40.2 95 39.3 0.00 57.4 29.7 1,022.4 0.0 ESE | 109 0.2 ESE | 109 376 31 0.0 0.0 - 3.8 2.17
12/7/22 - 0740 40.7 40.2 95 39.0 0.00 57.2 29.7 1,022.3 0.0 ESE | 103 0.5 E | 101 375 13 0.0 0.0 - 3.8 2.17
12/7/22 - 0730 40.3 39.1 95 38.3 0.00 57.3 29.7 1,022.2 0.1 SE | 140 0.7 SE | 140 375 9 0.0 0.0 - 3.8 2.17
12/7/22 - 0720 39.2 38.8 95 37.6 0.00 57.2 29.7 1,022.1 0.0 SSE | 154 0.1 SSE | 154 385 5 0.0 0.0 - 3.8 2.17
12/7/22 - 0710 39.0 38.6 94 37.3 0.00 57.1 29.7 1,021.9 0.0 SSE | 156 0.6 SSE | 159 385 -0 0.0 0.0 - 3.8 2.17
12/7/22 - 0700 39.0 38.6 94 37.4 0.00 56.7 29.7 1,021.8 0.1 SSE | 156 0.7 SSE | 159 386 -5 0.0 0.0 - 3.8 2.17
12/7/22 - 0650 39.3 38.8 94 37.6 0.00 56.8 29.7 1,021.7 0.0 S | 178 0.7 S | 186 385 -9 0.0 0.0 - 3.8 2.17
12/7/22 - 0640 39.3 38.8 94 37.6 0.00 56.8 29.7 1,021.6 0.2 S | 186 1.0 SSW | 192 378 -11 0.0 0.0 - 3.8 2.17
12/7/22 - 0630 39.6 38.9 95 37.8 0.00 56.9 29.7 1,021.5 0.1 S | 186 0.6 S | 188 374 -12 0.0 0.0 - 3.8 2.17
12/7/22 - 0620 39.3 38.7 94 37.4 0.00 57.1 29.7 1,021.3 0.2 SSW | 192 1.1 SSW | 194 387 -12 0.0 0.0 - 3.8 2.17
12/7/22 - 0610 39.5 39.2 94 37.8 0.00 57.1 29.7 1,021.2 0.1 SSE | 168 0.9 S | 170 387 -12 0.0 0.0 - 3.8 2.17
12/7/22 - 0600 39.9 39.4 94 38.2 0.00 56.9 29.8 1,021.1 0.0 S | 169 0.0 S | 169 384 -13 0.0 0.0 - 3.8 2.17
12/7/22 - 0550 40.3 39.4 94 38.2 0.00 56.9 29.7 1,020.9 0.0 N | 0 0.0 E | 93 382 -13 0.0 0.0 - 3.8 2.17
12/7/22 - 0540 40.4 39.8 95 38.8 0.00 57.0 29.8 1,020.8 0.0 N | 0 0.0 S | 182 378 -13 0.0 0.0 - 3.8 2.17
12/7/22 - 0530 39.9 39.6 94 38.2 0.00 56.9 29.8 1,020.7 0.1 SSW | 194 0.9 S | 173 387 -13 0.0 0.0 - 3.8 2.17
12/7/22 - 0520 40.0 39.7 94 38.2 0.00 56.9 29.8 1,020.6 0.3 SSE | 159 1.0 SSE | 149 387 -13 0.0 0.0 - 3.8 2.17
12/7/22 - 0510 40.4 39.9 94 38.6 0.00 57.0 29.8 1,020.5 0.4 S | 183 1.4 SSW | 192 384 -13 0.0 0.0 - 3.8 2.17
12/7/22 - 0500 40.4 39.8 94 38.5 0.00 57.2 29.8 1,020.5 0.0 N | 0 0.0 NNE | 20 382 -14 0.0 0.0 - 3.8 2.17
12/7/22 - 0450 40.4 39.9 94 38.5 0.00 57.3 29.8 1,020.3 0.0 ENE | 61 0.4 NNE | 20 377 -14 0.0 0.0 - 3.8 2.17
12/7/22 - 0440 41.0 40.4 94 39.1 0.00 57.4 29.9 1,020.2 0.1 SE | 144 1.2 SE | 143 384 -14 0.0 0.0 - 3.8 2.17
12/7/22 - 0430 41.6 40.8 94 39.6 0.00 57.6 29.8 1,020.2 0.0 N | 0 0.0 E | 98 384 -14 0.0 0.0 - 3.8 2.17
12/7/22 - 0420 41.7 41.4 94 40.0 0.00 57.9 29.8 1,020.2 0.0 N | 0 0.0 NNE | 17 380 -14 0.0 0.0 - 3.8 2.17
12/7/22 - 0410 42.0 41.6 94 40.2 0.00 58.1 29.8 1,020.2 0.0 N | 0 0.0 NNE | 19 375 -14 0.0 0.0 - 3.8 2.17
12/7/22 - 0400 42.5 41.9 94 40.6 0.00 58.2 29.9 1,020.2 0.0 NNE | 19 0.3 NNE | 19 372 -14 0.0 0.0 - 3.8 2.17
12/7/22 - 0350 43.2 42.4 94 41.1 0.00 58.4 29.9 1,020.1 0.0 N | 0 0.0 E | 87 366 -15 0.0 0.0 - 3.8 2.17
12/7/22 - 0340 43.5 43.0 94 41.7 0.00 58.4 29.9 1,020.1 0.2 SE | 138 1.4 SE | 142 375 -15 0.0 0.0 - 3.8 2.17
12/7/22 - 0330 43.5 43.1 94 41.7 0.00 58.5 29.9 1,020.1 0.8 SSE | 148 1.7 SE | 144 365 -12 0.0 0.0 - 3.8 2.17
12/7/22 - 0320 43.3 42.5 94 41.4 0.00 58.6 29.9 1,020.1 0.6 SE | 143 1.7 SE | 141 359 -5 0.0 0.0 - 3.8 2.17
12/7/22 - 0310 42.8 42.1 94 41.0 0.00 58.7 29.9 1,020.2 0.4 SSE | 148 1.9 SE | 142 359 -3 0.0 0.0 - 3.8 2.17
12/7/22 - 0300 42.2 41.6 94 40.4 0.00 58.8 29.9 1,020.2 0.2 SSW | 196 0.9 SSW | 207 363 -3 0.0 0.0 - 3.8 2.17
12/7/22 - 0250 42.0 41.4 94 40.0 0.00 58.7 29.9 1,020.2 0.1 SW | 215 1.0 NNE | 24 366 -6 0.0 0.0 - 3.8 2.17
12/7/22 - 0240 42.2 41.8 94 40.4 0.00 58.6 29.9 1,020.1 0.5 WSW | 249 1.6 WSW | 249 368 -9 0.0 0.0 - 3.8 2.17
12/7/22 - 0230 42.3 41.9 94 40.4 0.00 58.6 30.0 1,020.0 0.4 SSW | 206 1.2 SSW | 206 366 -15 0.0 0.0 - 3.8 2.17
12/7/22 - 0220 42.7 42.1 94 40.7 0.00 58.5 29.9 1,020.0 0.1 ENE | 78 0.7 ENE | 78 375 -16 0.0 0.0 - 3.8 2.17
12/7/22 - 0210 42.7 42.2 94 40.6 0.00 58.5 30.0 1,020.0 0.0 N | 0 0.0 ESE | 109 368 -14 0.0 0.0 - 3.8 2.17
12/7/22 - 0200 42.8 42.4 93 40.8 0.00 58.5 30.0 1,020.0 0.0 N | 0 0.0 E | 80 364 -4 0.0 0.0 - 3.8 2.17
12/7/22 - 0150 42.8 42.5 93 40.9 0.00 58.4 30.0 1,020.0 0.0 N | 0 0.0 E | 80 367 -5 0.0 0.0 - 3.8 2.17
12/7/22 - 0140 42.7 42.2 94 40.8 0.00 58.5 30.0 1,019.9 0.0 N | 0 0.0 E | 80 369 -7 0.0 0.0 - 3.8 2.17
12/7/22 - 0130 42.8 42.0 93 40.5 0.00 58.4 30.0 1,019.8 0.1 E | 86 1.1 E | 87 369 -10 0.0 0.0 - 3.8 2.17
12/7/22 - 0120 43.0 42.4 93 40.9 0.01 58.4 30.0 1,019.8 0.3 SSE | 150 1.3 S | 185 368 -11 0.0 0.0 - 3.8 2.17
12/7/22 - 0110 42.6 42.1 93 40.6 0.00 58.4 30.0 1,019.7 0.9 SSW | 199 2.4 SW | 222 366 -12 0.0 0.0 - 3.8 2.16
12/7/22 - 0100 42.4 42.0 93 40.3 0.00 58.3 30.0 1,019.7 0.0 N | 0 0.0 S | 181 376 -12 0.0 0.0 - 3.8 2.16
12/7/22 - 0050 42.4 42.1 93 40.4 0.00 58.3 30.0 1,019.7 0.2 SSW | 212 1.4 SW | 220 376 -13 0.0 0.0 - 3.8 2.16
12/7/22 - 0040 42.0 41.4 93 39.8 0.00 58.4 30.0 1,019.6 0.4 SSW | 205 1.4 SSW | 209 375 -15 0.0 0.0 - 3.8 2.16
12/7/22 - 0030 42.5 41.7 92 40.0 0.00 58.4 30.0 1,019.6 0.0 N | 0 0.0 SSE | 158 373 -15 0.0 0.0 - 3.8 2.16
12/7/22 - 0020 42.8 42.2 93 40.5 0.00 58.4 30.1 1,019.6 0.1 SSE | 163 0.5 SSE | 164 368 -17 0.0 0.0 - 3.8 2.16
12/7/22 - 0010 42.6 41.7 93 40.3 0.00 58.4 30.1 1,019.6 0.6 SSW | 198 2.0 SSW | 213 380 -18 0.0 0.0 - 3.8 2.16
12/7/22 - 0000 42.4 41.5 92 39.6 0.00 58.4 30.0 1,019.6 0.1 SSW | 199 1.1 SSW | 199 376 -19 0.0 7.2 - 3.8 2.16
12/6/22 - 2350 43.3 42.2 92 40.8 0.00 58.6 30.1 1,019.5 0.0 N | 0 0.0 SSW | 193 374 -19 0.0 7.2 - 3.8 2.16
12/6/22 - 2340 43.3 42.8 92 41.0 0.00 58.7 30.1 1,019.5 0.0 N | 0 0.0 S | 178 369 -19 0.0 7.2 - 3.8 2.16
12/6/22 - 2330 43.5 42.8 92 40.9 0.00 58.7 30.1 1,019.5 0.0 SSW | 193 0.9 SSW | 193 367 -20 0.0 7.2 - 3.8 2.16
12/6/22 - 2320 43.6 43.2 92 41.2 0.00 58.8 30.1 1,019.5 0.0 N | 0 0.0 S | 186 378 -20 0.0 7.2 - 3.8 2.16
12/6/22 - 2310 43.6 43.2 92 41.1 0.00 58.9 30.1 1,019.4 0.5 SSW | 199 1.6 SSW | 206 376 -19 0.0 7.2 - 3.8 2.16
12/6/22 - 2300 43.9 43.2 91 41.2 0.00 58.8 30.1 1,019.4 0.1 SW | 217 1.2 SW | 218 377 -21 0.0 7.2 - 3.8 2.16
12/6/22 - 2250 43.9 43.5 91 41.3 0.00 58.9 30.1 1,019.4 0.4 S | 186 1.4 S | 180 372 -21 0.0 7.2 - 3.8 2.16
12/6/22 - 2240 44.0 43.4 91 41.2 0.00 58.8 30.1 1,019.3 0.2 SSW | 198 1.0 SSW | 205 368 -23 0.0 7.2 - 3.8 2.16
12/6/22 - 2230 44.9 44.0 90 41.9 0.00 59.0 30.1 1,019.1 0.2 E | 100 0.7 NE | 43 365 -23 0.0 7.2 - 3.8 2.16
12/6/22 - 2220 45.0 44.6 91 42.2 0.00 58.8 30.1 1,019.0 0.3 SSW | 205 1.0 SSW | 206 358 -24 0.0 7.2 - 3.8 2.16
12/6/22 - 2210 45.1 44.2 90 42.0 0.00 58.8 30.1 1,019.0 0.2 S | 186 1.5 S | 180 354 -26 0.0 7.2 - 3.8 2.16
12/6/22 - 2200 44.7 44.2 90 41.7 0.00 58.7 30.1 1,018.9 0.2 S | 171 1.3 S | 175 350 -28 0.0 7.2 - 3.8 2.16
12/6/22 - 2150 45.0 44.5 90 41.8 0.00 58.6 30.1 1,018.8 0.0 SSE | 148 0.5 SSE | 148 345 -30 0.0 7.2 - 3.8 2.16
12/6/22 - 2140 45.2 44.6 89 41.8 0.00 58.6 30.1 1,018.8 0.3 S | 170 1.2 S | 174 338 -33 0.0 7.2 - 3.8 2.16
12/6/22 - 2130 45.4 44.9 89 42.1 0.00 58.4 30.2 1,018.9 0.6 SSE | 158 1.1 SE | 138 333 -35 0.1 7.2 - 3.8 2.16
12/6/22 - 2120 45.1 44.7 88 41.7 0.00 58.5 30.2 1,018.8 0.5 SSE | 164 1.4 S | 170 326 -38 0.0 7.2 - 3.8 2.16
12/6/22 - 2110 45.5 44.8 87 41.6 0.00 58.4 30.2 1,018.8 0.4 SSE | 154 1.7 SSE | 156 319 -41 0.0 7.2 - 3.8 2.16
12/6/22 - 2100 46.1 45.3 86 41.9 0.00 58.3 30.2 1,018.7 0.0 SSE | 161 0.2 SSE | 147 312 -45 0.0 7.2 - 3.8 2.16
12/6/22 - 2050 46.6 46.0 86 42.3 0.00 58.2 30.2 1,018.7 0.4 SSE | 161 1.1 SSE | 151 304 -49 0.0 7.2 - 3.8 2.16
12/6/22 - 2040 46.8 46.4 85 42.4 0.00 58.2 30.2 1,018.6 0.7 SSE | 167 1.3 S | 177 297 -53 0.0 7.2 - 3.8 2.16
12/6/22 - 2030 47.3 46.7 84 42.5 0.00 58.3 30.3 1,018.6 0.4 SSE | 160 1.0 S | 170 292 -57 0.0 7.2 - 3.8 2.16
12/6/22 - 2020 47.8 47.2 83 42.6 0.00 58.2 30.2 1,018.5 0.8 SSE | 162 1.8 SE | 144 287 -61 0.0 7.2 - 3.8 2.16
12/6/22 - 2010 48.4 47.8 82 42.9 0.00 58.3 30.3 1,018.5 1.3 S | 172 2.2 SSE | 158 284 -62 0.1 7.2 - 3.8 2.16
12/6/22 - 2000 48.7 48.1 81 42.8 0.00 58.3 30.3 1,018.5 1.3 S | 180 2.3 S | 174 281 -63 0.1 7.2 - 3.8 2.16
12/6/22 - 1950 49.1 48.6 80 42.9 0.00 58.3 30.3 1,018.4 0.9 S | 178 1.8 SSE | 156 279 -63 0.0 7.2 - 3.8 2.16
12/6/22 - 1940 49.6 49.1 79 43.1 0.00 58.5 30.3 1,018.3 1.4 S | 188 2.7 SSW | 195 277 -64 0.2 7.2 - 3.8 2.16
12/6/22 - 1930 49.8 49.2 78 43.0 0.00 58.6 30.3 1,018.3 0.8 S | 186 1.7 S | 186 276 -64 0.0 7.1 - 3.8 2.16
12/6/22 - 1920 50.5 49.7 77 43.2 0.00 58.6 30.3 1,018.2 1.2 SSW | 196 2.7 S | 186 274 -65 0.0 7.1 - 3.8 2.16
12/6/22 - 1910 50.9 50.5 76 43.4 0.00 58.8 30.3 1,018.2 1.2 SSW | 204 2.0 SSW | 205 273 -67 0.0 7.1 - 3.8 2.16
12/6/22 - 1900 51.3 50.7 75 43.4 0.00 58.8 30.4 1,018.1 1.3 SSW | 196 2.7 S | 180 273 -68 0.0 7.1 - 3.8 2.16
12/6/22 - 1850 51.5 51.0 74 43.4 0.00 58.9 30.4 1,018.1 1.3 SSW | 205 2.3 SW | 234 272 -68 0.0 7.1 - 3.8 2.16
12/6/22 - 1840 52.1 51.4 73 43.5 0.00 59.1 30.4 1,018.0 1.5 SSW | 208 2.3 SSW | 210 272 -67 0.2 7.1 - 3.8 2.16
12/6/22 - 1830 52.6 52.1 72 43.7 0.00 59.1 30.4 1,017.9 1.8 SW | 224 3.6 SW | 234 271 -67 0.5 7.1 - 3.8 2.16
12/6/22 - 1820 52.8 52.6 73 44.1 0.00 59.1 30.4 1,017.8 2.0 SW | 216 3.4 SW | 223 271 -58 0.8 7.0 - 3.8 2.16
12/6/22 - 1810 53.3 52.7 72 44.2 0.00 59.2 30.4 1,017.8 1.1 SW | 224 3.0 WSW | 252 271 -57 0.3 6.9 - 3.8 2.16
12/6/22 - 1800 53.8 53.3 71 44.4 0.00 59.0 30.4 1,017.6 2.4 SW | 236 4.5 SW | 235 270 -66 1.2 6.8 - 3.8 2.16
12/6/22 - 1750 54.3 53.7 70 44.4 0.00 58.9 30.4 1,017.5 2.9 SW | 229 5.7 SW | 234 270 -64 1.9 6.6 - 3.8 2.16
12/6/22 - 1740 54.9 54.1 69 44.4 0.00 58.9 30.4 1,017.5 2.7 SW | 232 5.7 SW | 236 270 -52 1.7 6.3 - 3.8 2.16
12/6/22 - 1730 54.9 54.5 67 43.9 0.00 58.8 30.4 1,017.4 3.2 WSW | 237 5.1 W | 263 270 -52 2.0 6.0 - 3.8 2.16
12/6/22 - 1720 54.9 54.6 65 43.3 0.00 58.8 30.4 1,017.3 2.8 SW | 235 4.9 WSW | 243 270 -40 1.8 5.7 - 3.8 2.16
12/6/22 - 1710 55.3 54.9 64 43.3 0.00 58.7 30.4 1,017.2 2.4 SSW | 207 3.9 SSW | 212 270 -40 1.3 5.4 - 3.8 2.16
12/6/22 - 1700 55.7 55.1 64 43.4 0.00 58.6 30.4 1,017.1 1.8 SSW | 212 3.3 SW | 227 270 -36 0.9 5.2 - 3.8 2.16
12/6/22 - 1650 56.2 55.6 63 43.3 0.00 58.6 30.4 1,017.0 2.1 S | 177 3.3 S | 176 270 -29 0.9 5.0 - 3.8 2.16
12/6/22 - 1640 56.4 55.9 62 43.2 0.00 58.5 30.4 1,017.0 1.9 S | 180 4.3 S | 189 270 -27 0.8 4.9 - 3.8 2.16
12/6/22 - 1630 56.8 56.2 61 43.0 0.00 58.5 30.4 1,017.0 2.3 SSW | 194 5.2 SSE | 167 270 -29 1.1 4.7 - 3.8 2.16
12/6/22 - 1620 57.6 56.6 58 42.7 0.00 58.5 30.4 1,017.0 2.4 S | 187 4.3 SSW | 201 269 -16 1.2 4.6 - 3.8 2.16
12/6/22 - 1610 57.8 57.4 57 42.6 0.00 58.4 30.4 1,016.9 1.2 SSW | 198 3.7 SSW | 195 268 -2 0.4 4.4 - 3.8 2.16
12/6/22 - 1600 57.4 56.8 58 42.4 0.00 58.4 30.4 1,016.8 1.7 SSW | 204 3.1 S | 184 269 5 0.9 4.3 - 3.8 2.16
12/6/22 - 1550 57.4 56.8 59 42.8 0.00 58.4 30.4 1,016.9 2.2 SSW | 195 3.6 SSW | 204 270 -9 1.2 4.1 - 3.8 2.16
12/6/22 - 1540 58.2 57.1 58 43.0 0.00 58.3 30.4 1,016.9 2.5 SSW | 204 4.9 WSW | 250 269 -13 1.5 4.0 - 3.8 2.16
12/6/22 - 1530 58.4 57.4 58 43.3 0.00 58.3 30.4 1,016.8 2.2 SSW | 198 5.1 SSW | 200 268 36 1.1 3.7 - 3.8 2.16
12/6/22 - 1520 57.7 57.2 58 42.9 0.00 58.2 30.4 1,016.7 2.0 SSW | 193 4.2 SSW | 207 269 -17 1.1 3.5 - 3.8 2.16
12/6/22 - 1510 58.2 57.7 56 42.6 0.00 58.2 30.4 1,016.8 1.1 S | 189 3.1 S | 174 269 -8 0.6 3.3 - 3.8 2.16
12/6/22 - 1500 58.2 57.7 56 42.3 0.00 58.1 30.4 1,016.8 1.6 SSW | 203 3.1 SSW | 192 269 -5 0.9 3.2 - 3.8 2.16
12/6/22 - 1450 59.6 58.0 55 42.6 0.00 58.1 30.4 1,016.8 2.0 SSW | 197 3.8 SW | 214 269 -3 1.5 3.1 - 3.8 2.16
12/6/22 - 1440 60.6 59.6 53 42.9 0.00 58.2 30.4 1,016.8 1.9 S | 176 5.2 S | 183 268 97 1.2 2.8 - 3.8 2.16
12/6/22 - 1430 61.3 60.4 52 43.1 0.00 57.9 30.4 1,016.7 2.0 SE | 142 4.8 SE | 127 267 248 1.0 2.6 - 3.8 2.16
12/6/22 - 1420 61.6 60.7 51 42.9 0.00 57.8 30.4 1,016.7 1.5 E | 93 5.3 ESE | 109 267 240 0.9 2.5 - 3.8 2.16
12/6/22 - 1410 60.7 58.2 54 42.9 0.00 57.8 30.4 1,016.8 1.1 WSW | 248 3.0 WSW | 253 268 288 0.8 2.3 - 3.8 2.16
12/6/22 - 1400 58.2 57.9 56 42.3 0.00 57.7 30.4 1,016.9 1.1 SE | 135 2.7 SE | 137 269 106 0.2 2.2 - 3.8 2.16
12/6/22 - 1350 58.1 57.7 56 42.4 0.00 57.7 30.3 1,016.9 1.5 SE | 136 3.2 ESE | 115 269 61 0.8 2.1 - 3.8 2.16
12/6/22 - 1340 59.3 58.0 56 43.1 0.00 57.7 30.3 1,016.9 2.8 S | 178 4.9 SSE | 162 269 65 1.8 2.0 - 3.8 2.16
12/6/22 - 1330 59.0 58.5 56 43.1 0.00 57.6 30.3 1,016.8 1.9 SSE | 158 4.6 SSW | 192 268 225 1.1 1.7 - 3.8 2.16
12/6/22 - 1320 59.2 58.5 56 43.0 0.00 57.6 30.3 1,017.0 1.7 SE | 134 4.5 S | 188 269 182 1.0 1.5 - 3.8 2.16
12/6/22 - 1310 59.1 58.4 56 43.3 0.00 57.6 30.3 1,017.1 1.3 ESE | 123 3.4 SE | 141 269 155 0.4 1.4 - 3.8 2.16
12/6/22 - 1300 59.4 58.7 57 43.5 0.00 57.7 30.3 1,017.2 1.4 E | 91 4.8 E | 99 269 107 0.6 1.3 - 3.8 2.16
12/6/22 - 1250 59.4 58.4 57 43.6 0.00 57.8 30.3 1,017.2 2.1 ENE | 76 4.9 ENE | 64 268 288 0.6 1.2 - 3.8 2.16
12/6/22 - 1240 58.6 58.1 58 43.9 0.00 57.7 30.3 1,017.4 1.3 ENE | 68 3.3 E | 81 269 166 0.2 1.1 - 3.8 2.16
12/6/22 - 1230 58.7 57.4 60 44.4 0.00 57.7 30.3 1,017.4 1.1 E | 95 3.3 ESE | 102 269 244 0.3 1.1 - 3.8 2.16
12/6/22 - 1220 57.5 56.6 63 44.7 0.00 57.7 30.3 1,017.5 0.8 E | 83 2.4 NE | 53 270 144 0.1 1.0 - 3.8 2.16
12/6/22 - 1210 56.8 56.4 65 44.8 0.00 57.6 30.3 1,017.8 0.3 ESE | 116 1.7 S | 179 270 27 0.3 1.0 - 3.8 2.16
12/6/22 - 1200 57.0 56.4 64 44.7 0.00 57.6 30.3 1,017.9 0.8 ENE | 74 2.6 ESE | 116 270 25 0.3 1.0 - 3.8 2.16
12/6/22 - 1150 57.6 56.8 63 44.8 0.00 57.6 30.3 1,018.1 0.4 NW | 307 2.2 WNW | 286 270 9 0.3 0.9 - 3.8 2.16
12/6/22 - 1140 57.6 57.1 64 45.2 0.00 57.6 30.2 1,018.2 0.4 NNW | 346 2.0 NNE | 31 270 81 0.1 0.9 - 3.8 2.16
12/6/22 - 1130 57.6 57.1 64 45.1 0.00 57.5 30.2 1,018.2 0.5 N | 8 2.6 N | 354 270 66 0.3 0.8 - 3.8 2.16
12/6/22 - 1120 57.3 56.8 64 44.8 0.00 57.5 30.2 1,018.3 0.4 N | 10 2.7 NNE | 13 270 94 0.0 0.8 - 3.8 2.16
12/6/22 - 1110 57.1 56.8 65 45.1 0.00 57.5 30.2 1,018.4 1.2 NE | 39 2.5 NE | 56 270 102 0.2 0.8 - 3.8 2.16
12/6/22 - 1100 57.1 56.4 64 45.0 0.00 57.5 30.2 1,018.6 0.9 NNE | 18 3.1 NNE | 22 270 97 0.1 0.8 - 3.8 2.16
12/6/22 - 1050 56.8 56.0 66 45.1 0.00 57.6 30.2 1,018.7 0.9 NNE | 33 3.4 NNE | 28 270 122 0.2 0.7 - 3.8 2.16
12/6/22 - 1040 57.9 56.3 64 44.9 0.00 57.6 30.2 1,018.9 1.6 SE | 132 4.3 SE | 142 270 109 0.8 0.7 - 3.8 2.16
12/6/22 - 1030 58.2 57.0 64 45.6 0.00 57.7 30.2 1,018.9 1.6 E | 80 3.7 ESE | 109 270 258 0.8 0.6 - 3.8 2.16
12/6/22 - 1020 57.0 56.1 65 45.0 0.00 57.8 30.1 1,018.9 2.3 E | 89 5.2 ENE | 76 270 311 1.1 0.4 - 3.8 2.16
12/6/22 - 1010 56.7 56.2 66 45.3 0.00 57.8 30.2 1,019.0 2.0 E | 79 4.9 E | 87 270 382 0.8 0.3 - 3.8 2.16
12/6/22 - 1000 57.2 56.4 66 45.5 0.00 57.8 30.1 1,018.9 1.1 ENE | 57 3.3 NE | 55 270 227 0.3 0.1 - 3.8 2.16
12/6/22 - 0950 56.6 55.5 67 45.0 0.00 57.8 30.1 1,018.8 1.2 ENE | 64 2.8 ESE | 102 270 262 0.4 0.1 - 3.8 2.16
12/6/22 - 0940 55.7 54.3 68 44.5 0.00 58.0 30.1 1,018.8 1.2 NNE | 32 2.9 N | 10 270 249 0.0 0.0 - 3.8 2.16
12/6/22 - 0930 54.6 52.4 71 44.2 0.00 58.0 30.1 1,018.8 0.4 NNE | 24 2.4 N | 8 270 257 0.0 0.0 - 3.8 2.16
12/6/22 - 0920 52.4 52.1 72 43.6 0.00 58.0 30.1 1,018.8 0.5 ESE | 110 1.6 SE | 134 272 136 0.0 0.0 - 3.8 2.16
12/6/22 - 0910 52.3 51.8 73 43.7 0.00 58.2 30.1 1,018.8 0.6 E | 100 1.9 E | 94 278 129 0.1 0.0 - 3.8 2.16
12/6/22 - 0900 52.0 51.0 75 44.0 0.00 58.3 30.1 1,018.7 0.2 N | 8 1.7 NNW | 334 281 107 0.0 0.0 - 3.8 2.16
12/6/22 - 0850 51.1 50.8 77 43.9 0.00 58.4 30.1 1,018.6 0.8 NNE | 31 2.3 NNE | 17 285 102 0.0 0.0 - 3.8 2.16
12/6/22 - 0840 51.2 50.7 82 45.6 0.00 58.6 30.1 1,018.5 0.7 N | 9 2.3 NE | 36 290 142 0.0 0.0 - 3.8 2.16
12/6/22 - 0830 51.0 50.0 88 47.1 0.00 58.6 30.1 1,018.4 0.2 N | 357 1.6 NNW | 343 295 161 0.0 0.0 - 3.8 2.16
12/6/22 - 0820 50.3 49.4 90 47.2 0.00 58.7 30.1 1,018.3 0.1 NNE | 17 1.0 N | 5 302 104 0.0 0.0 - 3.8 2.16
12/6/22 - 0810 49.8 47.7 93 46.9 0.00 58.8 30.1 1,018.2 0.0 NNE | 13 0.5 NNE | 18 311 114 0.0 0.0 - 3.8 2.16
12/6/22 - 0800 47.6 45.6 94 45.0 0.00 58.9 30.1 1,018.1 0.0 N | 0 0.0 SE | 133